Time;durP1;ratioP1;P1;durP2;ratioP2;P2;SDS_P1;SDS_P2;PMS_P1;PMS_P2;Temp;Humidity;BMP_temperature;BMP_pressure;BME280_temperature;BME280_humidity;BME280_pressure;Samples;Min_cycle;Max_cycle;Signal;HPM_P1;HPM_P2
2020/12/15 00:01:12;;;;;;;12.35;7.38;;;6.00;99.90;;;;;;4958415;28;20035;-72
2020/12/15 00:03:38;;;;;;;12.65;7.75;;;6.00;99.90;;;;;;4944337;28;20042;-72
2020/12/15 00:06:03;;;;;;;11.88;7.95;;;5.90;99.90;;;;;;4943135;28;20035;-72
2020/12/15 00:08:29;;;;;;;13.38;7.57;;;5.90;99.90;;;;;;4943198;28;20583;-72
2020/12/15 00:10:55;;;;;;;14.93;8.05;;;5.80;99.90;;;;;;4944036;28;20039;-74
2020/12/15 00:13:20;;;;;;;13.40;7.60;;;5.80;99.90;;;;;;4943701;28;20039;-74
2020/12/15 00:15:46;;;;;;;14.27;8.95;;;5.70;99.90;;;;;;4942268;28;20059;-72
2020/12/15 00:18:12;;;;;;;13.10;7.70;;;5.80;99.90;;;;;;4957610;28;20038;-71
2020/12/15 00:20:41;;;;;;;15.52;8.70;;;5.80;99.90;;;;;;4942681;29;20043;-71
2020/12/15 00:23:07;;;;;;;15.13;8.95;;;5.70;99.90;;;;;;4944758;28;20066;-73
2020/12/15 00:25:33;;;;;;;13.18;8.18;;;5.70;99.90;;;;;;4943382;28;20036;-74
2020/12/15 00:27:59;;;;;;;13.75;8.27;;;5.60;99.90;;;;;;4944359;28;20752;-73
2020/12/15 00:30:25;;;;;;;13.63;8.52;;;5.60;99.90;;;;;;4944246;28;20082;-71
2020/12/15 00:32:51;;;;;;;14.13;8.90;;;5.60;99.90;;;;;;4959299;28;20563;-71
2020/12/15 00:35:17;;;;;;;14.00;8.52;;;5.60;99.90;;;;;;4943907;28;20024;-71
2020/12/15 00:37:43;;;;;;;15.82;8.63;;;5.50;99.90;;;;;;4943030;29;20113;-73
2020/12/15 00:40:09;;;;;;;17.10;8.90;;;5.40;99.90;;;;;;4943173;28;20122;-74
2020/12/15 00:42:35;;;;;;;13.57;8.93;;;5.50;99.90;;;;;;4944196;28;20035;-74
2020/12/15 00:45:00;;;;;;;15.40;9.57;;;5.50;99.90;;;;;;4941774;29;20058;-72
2020/12/15 00:47:26;;;;;;;14.95;9.40;;;5.50;99.90;;;;;;4944427;28;20039;-71
2020/12/15 00:49:52;;;;;;;16.73;10.50;;;5.40;99.90;;;;;;4943663;28;20059;-71
2020/12/15 00:52:18;;;;;;;14.82;9.32;;;5.40;99.90;;;;;;4942552;29;20031;-72
2020/12/15 00:54:43;;;;;;;16.15;9.52;;;5.40;99.90;;;;;;4958259;28;20531;-71
2020/12/15 00:57:09;;;;;;;16.25;9.25;;;5.40;99.90;;;;;;4957561;28;20027;-71
2020/12/15 00:59:35;;;;;;;15.95;9.27;;;5.50;99.90;;;;;;4957834;28;20455;-71
2020/12/15 01:02:01;;;;;;;15.45;9.30;;;5.40;99.90;;;;;;4943930;28;20071;-71
2020/12/15 01:04:29;;;;;;;16.58;9.20;;;5.50;99.90;;;;;;4942601;28;20043;-74
2020/12/15 01:06:55;;;;;;;18.02;10.35;;;5.50;99.90;;;;;;4956965;28;20122;-73
2020/12/15 01:09:23;;;;;;;19.77;10.18;;;5.40;99.90;;;;;;4958031;28;20067;-74
2020/12/15 01:11:48;;;;;;;18.15;9.98;;;5.40;99.90;;;;;;4957799;28;20511;-73
2020/12/15 01:14:18;;;;;;;16.80;10.07;;;5.40;99.90;;;;;;4958218;28;20035;-73
2020/12/15 01:16:48;;;;;;;19.88;10.13;;;5.50;99.90;;;;;;4958935;28;20837;-74
2020/12/15 01:19:14;;;;;;;18.23;10.70;;;5.40;99.90;;;;;;4944166;28;20042;-74
2020/12/15 01:21:40;;;;;;;19.20;10.07;;;5.40;99.90;;;;;;4941956;29;20034;-74
2020/12/15 01:24:06;;;;;;;16.58;10.30;;;5.40;99.90;;;;;;4943556;28;20733;-74
2020/12/15 01:26:46;;;;;;;14.88;9.38;;;5.40;99.90;;;;;;4942845;28;20039;-74
2020/12/15 01:29:12;;;;;;;14.70;9.40;;;5.50;99.90;;;;;;4942758;29;20094;-74
2020/12/15 01:31:39;;;;;;;19.23;10.60;;;5.40;99.90;;;;;;4956951;28;20035;-74
2020/12/15 01:34:14;;;;;;;17.63;10.70;;;5.40;99.90;;;;;;4957299;28;20504;-73
2020/12/15 01:36:44;;;;;;;18.98;10.43;;;5.40;99.90;;;;;;4956412;28;20474;-74
2020/12/15 01:39:12;;;;;;;17.45;10.65;;;5.40;99.90;;;;;;4925251;29;20138;-73
2020/12/15 01:41:50;;;;;;;18.38;10.55;;;5.40;99.90;;;;;;4945172;28;20578;-74
2020/12/15 01:44:16;;;;;;;22.95;10.57;;;5.40;99.90;;;;;;4956618;28;20038;-74
2020/12/15 01:46:44;;;;;;;20.67;10.85;;;5.40;99.90;;;;;;4941497;28;20042;-74
2020/12/15 01:49:12;;;;;;;19.42;10.38;;;5.30;99.90;;;;;;4940932;29;20130;-74
2020/12/15 01:51:48;;;;;;;19.70;10.15;;;5.40;99.90;;;;;;4956524;28;20090;-73
2020/12/15 01:54:17;;;;;;;17.15;10.13;;;5.30;99.90;;;;;;4956889;28;20026;-74
2020/12/15 01:56:47;;;;;;;17.10;10.30;;;5.30;99.90;;;;;;4941447;28;20234;-74
2020/12/15 01:59:22;;;;;;;18.60;10.30;;;5.30;99.90;;;;;;4956737;28;20093;-70
2020/12/15 02:01:51;;;;;;;16.17;9.48;;;5.30;99.90;;;;;;4956657;28;20063;-69
2020/12/15 02:04:29;;;;;;;16.40;10.30;;;5.40;99.90;;;;;;4942681;28;20066;-69
2020/12/15 02:07:13;;;;;;;15.88;9.50;;;5.40;99.90;;;;;;4956348;28;20058;-69
2020/12/15 02:09:40;;;;;;;16.85;10.98;;;5.50;99.90;;;;;;4957185;28;20038;-69
2020/12/15 02:12:27;;;;;;;14.60;9.48;;;5.50;99.90;;;;;;4927490;29;20117;-69
2020/12/15 02:14:52;;;;;;;14.63;9.63;;;5.50;99.90;;;;;;4956963;28;20575;-69
2020/12/15 02:17:29;;;;;;;;;;;5.50;99.90;;;;;;4956868;28;20038;-70
2020/12/15 02:20:24;;;;;;;16.57;9.83;;;5.50;99.90;;;;;;4934009;28;19922;-69
2020/12/15 02:23:02;;;;;;;17.38;10.18;;;5.50;99.90;;;;;;4940649;29;20257;-67
2020/12/15 02:25:32;;;;;;;14.98;9.40;;;5.50;99.90;;;;;;4956075;28;20065;-66
2020/12/15 02:27:57;;;;;;;20.27;9.93;;;5.50;99.90;;;;;;4956963;28;20051;-68
2020/12/15 02:30:24;;;;;;;15.85;9.63;;;5.50;99.90;;;;;;4956953;28;20024;-69
2020/12/15 02:32:52;;;;;;;17.88;9.60;;;5.40;99.90;;;;;;4956917;28;20114;-69
2020/12/15 02:35:22;;;;;;;15.68;9.45;;;5.40;99.90;;;;;;4956193;28;20027;-69
2020/12/15 02:37:48;;;;;;;15.52;9.63;;;5.50;99.90;;;;;;4942310;28;20105;-69
2020/12/15 02:40:20;;;;;;;15.10;9.15;;;5.40;99.90;;;;;;4956551;28;20043;-69
2020/12/15 02:42:59;;;;;;;17.75;9.27;;;5.40;99.90;;;;;;4942111;28;20089;-69
2020/12/15 02:45:27;;;;;;;15.32;8.75;;;5.40;99.90;;;;;;4941344;28;20154;-69
2020/12/15 02:47:54;;;;;;;16.65;9.60;;;5.40;99.90;;;;;;4956375;28;20031;-69
2020/12/15 02:50:24;;;;;;;15.50;9.50;;;5.50;99.90;;;;;;4942251;28;20731;-67
2020/12/15 02:52:59;;;;;;;15.77;9.57;;;5.50;99.90;;;;;;4956552;28;20973;-67
2020/12/15 02:55:29;;;;;;;15.45;9.13;;;5.50;99.90;;;;;;4955561;28;20035;-69
2020/12/15 02:57:55;;;;;;;18.20;9.18;;;5.50;99.90;;;;;;4956226;28;20070;-67
2020/12/15 03:00:22;;;;;;;15.45;9.23;;;5.50;99.90;;;;;;4955815;28;20039;-67
2020/12/15 03:02:50;;;;;;;16.48;9.45;;;5.50;99.90;;;;;;4956081;28;20039;-66
2020/12/15 03:05:24;;;;;;;16.98;9.35;;;5.40;99.90;;;;;;4955300;28;20102;-66
2020/12/15 03:07:52;;;;;;;15.50;9.15;;;5.40;99.90;;;;;;4956026;28;20180;-66
2020/12/15 03:10:18;;;;;;;14.52;9.02;;;5.40;99.90;;;;;;4957823;28;20039;-67
2020/12/15 03:12:47;;;;;;;14.98;9.40;;;5.40;99.90;;;;;;4955643;28;20114;-67
2020/12/15 03:15:17;;;;;;;15.38;9.02;;;5.40;99.90;;;;;;4955640;28;20822;-67
2020/12/15 03:17:46;;;;;;;16.77;9.80;;;5.40;99.90;;;;;;4956325;28;20503;-67
2020/12/15 03:20:11;;;;;;;16.23;9.90;;;5.40;99.90;;;;;;4941597;28;20046;-66
2020/12/15 03:22:42;;;;;;;17.02;10.30;;;5.30;99.90;;;;;;4956370;28;20454;-67
2020/12/15 03:25:09;;;;;;;18.33;10.02;;;5.30;99.90;;;;;;4955635;28;20052;-66
2020/12/15 03:27:44;;;;;;;18.63;10.13;;;5.30;99.90;;;;;;4956439;28;20031;-67
2020/12/15 03:30:16;;;;;;;16.23;9.15;;;5.30;99.90;;;;;;4956246;28;20095;-66
2020/12/15 03:32:42;;;;;;;19.80;10.38;;;5.30;99.90;;;;;;4955540;28;20035;-66
2020/12/15 03:35:08;;;;;;;15.73;9.43;;;5.30;99.90;;;;;;4939036;28;20451;-66
2020/12/15 03:37:36;;;;;;;22.92;13.25;;;5.20;99.90;;;;;;4956241;28;20063;-66
2020/12/15 03:40:03;;;;;;;16.63;10.00;;;5.30;99.90;;;;;;4939352;29;20655;-66
2020/12/15 03:42:49;;;;;;;16.55;10.25;;;5.40;99.90;;;;;;4936916;28;20122;-66
2020/12/15 03:45:15;;;;;;;21.38;11.05;;;5.30;99.90;;;;;;4954262;28;20698;-66
2020/12/15 03:47:42;;;;;;;18.60;10.77;;;5.30;99.90;;;;;;4955053;28;20508;-66
2020/12/15 03:50:09;;;;;;;18.50;10.98;;;5.30;99.90;;;;;;4938316;29;20400;-69
2020/12/15 03:52:38;;;;;;;18.05;10.93;;;5.20;99.90;;;;;;4950079;28;20059;-66
2020/12/15 03:55:10;;;;;;;19.27;11.52;;;5.20;99.90;;;;;;4956624;28;20050;-69
2020/12/15 03:57:41;;;;;;;19.70;11.88;;;5.10;99.90;;;;;;4942548;28;20537;-71
2020/12/15 04:00:20;;;;;;;21.65;11.40;;;5.10;99.90;;;;;;4941160;29;20042;-66
2020/12/15 04:03:11;;;;;;;23.60;12.70;;;5.10;99.90;;;;;;4957221;28;20035;-67
2020/12/15 04:05:57;;;;;;;20.23;11.43;;;5.00;99.90;;;;;;4956946;28;20056;-66
2020/12/15 04:08:26;;;;;;;20.90;11.30;;;4.90;99.90;;;;;;4956318;28;20499;-69
2020/12/15 04:10:53;;;;;;;20.58;12.05;;;5.00;99.90;;;;;;4956852;28;20039;-69
2020/12/15 04:13:26;;;;;;;19.60;11.10;;;5.00;99.90;;;;;;4955309;28;20542;-69
2020/12/15 04:15:54;;;;;;;19.67;12.02;;;4.90;99.90;;;;;;4942984;28;20407;-69
2020/12/15 04:18:25;;;;;;;21.60;12.27;;;4.70;99.90;;;;;;4959015;28;20039;-69
2020/12/15 04:20:53;;;;;;;21.90;11.95;;;4.70;99.90;;;;;;4942798;28;20036;-73
2020/12/15 04:23:19;;;;;;;21.23;12.75;;;4.70;99.90;;;;;;4958905;28;20031;-73
2020/12/15 04:25:55;;;;;;;20.40;12.48;;;4.60;99.90;;;;;;4952451;28;20081;-69
2020/12/15 04:28:26;;;;;;;20.65;12.32;;;4.60;99.90;;;;;;4958350;28;20038;-69
2020/12/15 04:30:52;;;;;;;22.77;12.70;;;4.60;99.90;;;;;;4958135;28;20035;-69
2020/12/15 04:33:19;;;;;;;22.55;12.77;;;4.60;99.90;;;;;;4957786;28;20487;-69
2020/12/15 04:35:49;;;;;;;23.88;13.95;;;4.60;99.90;;;;;;4957676;28;20168;-69
2020/12/15 04:38:15;;;;;;;24.83;13.15;;;4.60;99.90;;;;;;4944064;29;20778;-69
2020/12/15 04:40:43;;;;;;;24.63;13.90;;;4.60;99.90;;;;;;4959063;28;20035;-69
2020/12/15 04:43:14;;;;;;;21.38;12.90;;;4.60;99.90;;;;;;4958858;28;20041;-69
2020/12/15 04:45:40;;;;;;;23.65;13.15;;;4.60;99.90;;;;;;4957792;28;20515;-69
2020/12/15 04:48:09;;;;;;;24.27;12.93;;;4.60;99.90;;;;;;4942768;28;20061;-69
2020/12/15 04:50:59;;;;;;;22.10;13.00;;;4.50;99.90;;;;;;4955735;28;20849;-69
2020/12/15 04:53:28;;;;;;;39.05;19.35;;;4.50;99.90;;;;;;4958218;28;20035;-67
2020/12/15 04:56:29;;;;;;;22.23;13.88;;;4.50;99.90;;;;;;4942020;29;20493;-66
2020/12/15 04:59:11;;;;;;;24.67;13.27;;;4.60;99.90;;;;;;4958497;28;20093;-66
2020/12/15 05:01:40;;;;;;;24.23;13.68;;;4.50;99.90;;;;;;4958757;28;20168;-67
2020/12/15 05:04:12;;;;;;;25.70;15.05;;;4.50;99.90;;;;;;4958079;28;20094;-67
2020/12/15 05:06:53;;;;;;;42.47;19.75;;;4.50;99.90;;;;;;4958335;28;20716;-66
2020/12/15 05:09:31;;;;;;;26.20;15.15;;;4.50;99.90;;;;;;4958362;28;20946;-69
2020/12/15 05:12:00;;;;;;;25.42;13.93;;;4.50;99.90;;;;;;4958165;28;20586;-69
2020/12/15 05:14:33;;;;;;;26.67;14.63;;;4.40;99.90;;;;;;4957955;28;20055;-69
2020/12/15 05:16:59;;;;;;;28.95;14.82;;;4.50;99.90;;;;;;4942213;28;20028;-69
2020/12/15 05:19:45;;;;;;;29.27;16.02;;;4.50;99.90;;;;;;4957593;28;20050;-69
2020/12/15 05:22:20;;;;;;;27.83;15.05;;;4.50;99.90;;;;;;4941622;29;20398;-69
2020/12/15 05:24:49;;;;;;;26.90;15.70;;;4.50;99.90;;;;;;4958133;28;20138;-69
2020/12/15 05:27:29;;;;;;;29.40;15.93;;;4.50;99.90;;;;;;4957582;28;20698;-69
2020/12/15 05:30:11;;;;;;;31.20;15.88;;;4.70;99.90;;;;;;4958127;28;20035;-69
2020/12/15 05:33:02;;;;;;;30.80;16.07;;;4.60;99.90;;;;;;4958029;28;20063;-69
2020/12/15 05:35:54;;;;;;;31.02;16.02;;;4.70;99.90;;;;;;4941238;28;20046;-69
2020/12/15 05:38:44;;;;;;;27.70;15.45;;;4.80;99.90;;;;;;4941599;29;20089;-70
2020/12/15 05:41:23;;;;;;;29.77;16.20;;;4.80;99.90;;;;;;4957849;28;20126;-68
2020/12/15 05:43:57;;;;;;;28.40;15.77;;;4.80;99.90;;;;;;4951373;28;20038;-69
2020/12/15 05:46:29;;;;;;;32.05;16.17;;;4.80;99.90;;;;;;4956395;28;20403;-69
2020/12/15 05:49:04;;;;;;;28.58;15.48;;;4.80;99.90;;;;;;4957667;28;20118;-69
2020/12/15 05:51:40;;;;;;;30.70;16.67;;;4.80;99.90;;;;;;4939806;29;20031;-69
2020/12/15 05:54:08;;;;;;;31.40;16.65;;;4.80;99.90;;;;;;4942158;28;20042;-69
2020/12/15 05:56:36;;;;;;;30.23;16.55;;;4.70;99.90;;;;;;4941768;28;20031;-69
2020/12/15 05:59:20;;;;;;;28.63;16.23;;;4.70;99.90;;;;;;4941671;28;20106;-67
2020/12/15 06:01:49;;;;;;;28.75;16.23;;;4.70;99.90;;;;;;4937478;29;20035;-67
2020/12/15 06:04:15;;;;;;;29.30;15.85;;;4.70;99.90;;;;;;4941490;28;20483;-67
2020/12/15 06:06:42;;;;;;;30.27;16.77;;;4.70;99.90;;;;;;4939772;29;20035;-67
2020/12/15 06:09:12;;;;;;;29.80;16.52;;;4.60;99.90;;;;;;4941759;28;20051;-67
2020/12/15 06:11:40;;;;;;;29.40;16.33;;;4.70;99.90;;;;;;4941711;28;20066;-67
2020/12/15 06:14:07;;;;;;;31.15;17.13;;;4.60;99.90;;;;;;4941121;28;20039;-68
2020/12/15 06:16:33;;;;;;;28.10;15.75;;;4.70;99.90;;;;;;4941177;29;20027;-68
2020/12/15 06:18:59;;;;;;;30.20;15.93;;;4.60;99.90;;;;;;4941726;28;20122;-66
2020/12/15 06:21:26;;;;;;;31.83;16.85;;;4.60;99.90;;;;;;4941459;28;20035;-67
2020/12/15 06:24:03;;;;;;;29.27;16.52;;;4.70;99.90;;;;;;4956193;28;20522;-68
2020/12/15 06:26:30;;;;;;;29.70;16.17;;;4.60;99.90;;;;;;4940528;28;20047;-67
2020/12/15 06:29:01;;;;;;;31.00;16.90;;;4.70;99.90;;;;;;4941156;28;20038;-67
2020/12/15 06:31:27;;;;;;;34.75;18.23;;;4.70;99.90;;;;;;4942184;28;20035;-67
2020/12/15 06:33:57;;;;;;;31.25;16.90;;;4.60;99.90;;;;;;4942351;28;20024;-67
2020/12/15 06:36:29;;;;;;;34.97;18.00;;;4.60;99.90;;;;;;4940646;28;20054;-66
2020/12/15 06:38:55;;;;;;;28.27;16.13;;;4.70;99.90;;;;;;4941177;28;20476;-68
2020/12/15 06:41:22;;;;;;;29.02;16.95;;;4.70;99.90;;;;;;4941738;28;20582;-66
2020/12/15 06:43:48;;;;;;;30.95;16.73;;;4.80;99.90;;;;;;4941799;29;20042;-67
2020/12/15 06:46:14;;;;;;;32.15;17.33;;;4.80;99.90;;;;;;4941022;28;20035;-66
2020/12/15 06:48:44;;;;;;;32.63;16.63;;;4.90;99.90;;;;;;4940506;29;20050;-68
2020/12/15 06:51:09;;;;;;;32.45;17.35;;;4.90;99.90;;;;;;4941794;28;20121;-67
2020/12/15 06:53:35;;;;;;;32.65;17.25;;;4.80;99.90;;;;;;4941851;28;20034;-67
2020/12/15 06:56:03;;;;;;;32.28;16.88;;;4.80;99.90;;;;;;4939699;28;20039;-67
2020/12/15 06:58:30;;;;;;;30.60;16.83;;;4.80;99.90;;;;;;4941048;28;20023;-67
2020/12/15 07:00:58;;;;;;;29.10;16.02;;;4.80;99.90;;;;;;4945295;28;20484;-67
2020/12/15 07:03:39;;;;;;;72.35;34.92;;;4.80;99.90;;;;;;4941796;28;20163;-68
2020/12/15 07:06:15;;;;;;;30.83;16.65;;;4.80;99.90;;;;;;4955361;28;20031;-68
2020/12/15 07:08:42;;;;;;;29.83;15.15;;;4.80;99.90;;;;;;4936110;29;20547;-67
2020/12/15 07:11:08;;;;;;;29.30;16.13;;;4.90;99.90;;;;;;4941594;28;20063;-67
2020/12/15 07:13:34;;;;;;;28.98;15.82;;;4.90;99.90;;;;;;4941165;28;20079;-67
2020/12/15 07:16:00;;;;;;;29.13;15.98;;;5.00;99.90;;;;;;4940869;28;20024;-67
2020/12/15 07:18:25;;;;;;;34.47;16.63;;;4.90;99.90;;;;;;4941169;28;20027;-67
2020/12/15 07:20:51;;;;;;;31.50;16.23;;;4.90;99.90;;;;;;4941112;29;20830;-67
2020/12/15 07:23:17;;;;;;;29.00;16.23;;;5.00;99.90;;;;;;4941287;29;20077;-67
2020/12/15 07:25:44;;;;;;;29.35;16.08;;;4.90;99.90;;;;;;4940147;29;20035;-68
2020/12/15 07:28:10;;;;;;;29.50;15.48;;;4.90;99.90;;;;;;4940836;28;20032;-67
2020/12/15 07:30:38;;;;;;;30.17;16.23;;;5.00;99.90;;;;;;4956054;28;20444;-67
2020/12/15 07:33:04;;;;;;;27.70;15.38;;;5.00;99.90;;;;;;4941330;28;20042;-67
2020/12/15 07:35:31;;;;;;;28.33;15.35;;;5.00;99.90;;;;;;4940082;28;20792;-67
2020/12/15 07:37:57;;;;;;;29.75;16.38;;;5.00;99.90;;;;;;4941035;28;20519;-69
2020/12/15 07:40:28;;;;;;;27.65;15.13;;;5.00;99.90;;;;;;4941023;29;20119;-68
2020/12/15 07:42:59;;;;;;;26.95;14.70;;;5.00;99.90;;;;;;4956081;28;20043;-68
2020/12/15 07:45:28;;;;;;;27.98;15.43;;;5.10;99.90;;;;;;4955337;28;20434;-72
2020/12/15 07:47:55;;;;;;;30.13;15.32;;;5.10;99.90;;;;;;4940857;28;20054;-68
2020/12/15 07:50:28;;;;;;;29.23;15.63;;;5.10;99.90;;;;;;4943111;28;20101;-68
2020/12/15 07:52:55;;;;;;;29.85;16.23;;;5.20;99.90;;;;;;4945012;28;20035;-68
2020/12/15 07:55:21;;;;;;;29.70;15.93;;;5.20;99.90;;;;;;4943715;28;20035;-68
2020/12/15 07:57:48;;;;;;;31.15;16.30;;;5.20;99.90;;;;;;4943791;28;20403;-68
2020/12/15 08:00:20;;;;;;;29.05;15.23;;;5.20;99.90;;;;;;4957774;28;20043;-68
2020/12/15 08:02:47;;;;;;;42.85;22.73;;;5.30;99.90;;;;;;4958663;28;20087;-67
2020/12/15 08:05:16;;;;;;;27.20;14.82;;;5.30;99.90;;;;;;4942878;29;20290;-72
2020/12/15 08:08:01;;;;;;;25.83;14.85;;;5.30;99.90;;;;;;4944115;29;20514;-69
2020/12/15 08:10:28;;;;;;;28.25;16.67;;;5.30;99.90;;;;;;4942550;29;20038;-71
2020/12/15 08:13:00;;;;;;;27.60;15.00;;;5.30;99.90;;;;;;4943391;28;20126;-70
2020/12/15 08:15:28;;;;;;;37.25;20.40;;;5.40;99.90;;;;;;4942331;29;20452;-70
2020/12/15 08:17:54;;;;;;;23.98;13.10;;;5.40;99.90;;;;;;4943837;28;20130;-71
2020/12/15 08:20:27;;;;;;;24.52;13.75;;;5.40;99.90;;;;;;4943158;28;20031;-70
2020/12/15 08:23:12;;;;;;;26.23;14.27;;;5.40;99.90;;;;;;4943088;28;20047;-68
2020/12/15 08:25:45;;;;;;;24.30;13.40;;;5.50;99.90;;;;;;4944090;28;20204;-69
2020/12/15 08:28:13;;;;;;;27.02;14.32;;;5.50;99.90;;;;;;4944063;28;20081;-68
2020/12/15 08:30:40;;;;;;;28.10;14.38;;;5.60;99.90;;;;;;4944118;28;20559;-72
2020/12/15 08:33:06;;;;;;;55.50;23.88;;;5.60;99.90;;;;;;4958543;28;20511;-74
2020/12/15 08:35:32;;;;;;;26.10;13.32;;;5.60;99.90;;;;;;4943216;28;20058;-70
2020/12/15 08:38:00;;;;;;;23.55;13.57;;;5.70;99.90;;;;;;4943761;28;21038;-70
2020/12/15 08:40:28;;;;;;;25.70;14.30;;;5.70;99.90;;;;;;4950982;28;20066;-70
2020/12/15 08:42:57;;;;;;;23.50;13.43;;;5.70;99.90;;;;;;4944014;29;20710;-70
2020/12/15 08:45:26;;;;;;;23.10;12.75;;;5.80;99.90;;;;;;4943014;28;20169;-73
2020/12/15 08:47:56;;;;;;;21.65;12.27;;;5.80;99.90;;;;;;4943510;29;20037;-70
2020/12/15 08:50:29;;;;;;;25.13;13.20;;;5.90;99.90;;;;;;4942148;29;20102;-71
2020/12/15 08:53:05;;;;;;;25.95;13.80;;;5.90;99.90;;;;;;4943110;28;20027;-69
2020/12/15 08:55:33;;;;;;;22.77;12.65;;;6.00;99.90;;;;;;4942577;29;20122;-69
2020/12/15 08:58:03;;;;;;;21.15;11.27;;;6.00;99.90;;;;;;4942734;28;20067;-69
2020/12/15 09:00:33;;;;;;;22.40;12.32;;;6.10;99.90;;;;;;4941097;28;20039;-70
2020/12/15 09:03:17;;;;;;;22.70;11.95;;;6.10;99.90;;;;;;4941953;28;20064;-70
2020/12/15 09:05:53;;;;;;;22.08;12.05;;;6.20;99.90;;;;;;4936624;29;20054;-70
2020/12/15 09:08:19;;;;;;;20.98;11.70;;;6.30;99.90;;;;;;4943116;28;20976;-70
2020/12/15 09:10:46;;;;;;;20.70;11.10;;;6.30;99.90;;;;;;4944981;28;20519;-69
2020/12/15 09:13:11;;;;;;;21.55;11.32;;;6.40;99.90;;;;;;4942957;28;20063;-70
2020/12/15 09:15:51;;;;;;;22.13;12.18;;;6.50;99.90;;;;;;4957148;28;20708;-70
2020/12/15 09:18:30;;;;;;;20.95;10.73;;;6.50;99.90;;;;;;4942539;28;20751;-70
2020/12/15 09:20:56;;;;;;;19.83;11.00;;;6.60;99.90;;;;;;4943814;28;20038;-70
2020/12/15 09:23:26;;;;;;;20.77;11.32;;;6.70;99.90;;;;;;4943265;28;20035;-70
2020/12/15 09:25:54;;;;;;;21.13;11.25;;;6.80;99.90;;;;;;4942103;28;20757;-69
2020/12/15 09:28:26;;;;;;;19.20;10.70;;;6.80;99.90;;;;;;4943361;28;20376;-69
2020/12/15 09:30:52;;;;;;;19.67;10.52;;;6.90;99.90;;;;;;4943667;28;20047;-71
2020/12/15 09:33:18;;;;;;;18.35;10.38;;;7.00;99.90;;;;;;4943093;28;20043;-72
2020/12/15 09:35:44;;;;;;;18.90;10.48;;;7.00;99.90;;;;;;4925208;29;20078;-70
2020/12/15 09:38:11;;;;;;;19.42;10.68;;;6.90;99.90;;;;;;4942684;28;20031;-74
2020/12/15 09:40:37;;;;;;;17.92;10.30;;;7.00;99.90;;;;;;4957154;28;20045;-72
2020/12/15 09:43:02;;;;;;;19.60;10.52;;;7.00;99.90;;;;;;4942839;29;20070;-71
2020/12/15 09:45:28;;;;;;;19.40;11.07;;;7.00;99.90;;;;;;4942332;28;20114;-72
2020/12/15 09:47:58;;;;;;;19.75;11.18;;;7.10;99.90;;;;;;4942759;28;20038;-72
2020/12/15 09:50:23;;;;;;;18.55;10.85;;;7.00;99.90;;;;;;4942464;28;20039;-71
2020/12/15 09:52:49;;;;;;;20.13;10.85;;;7.10;99.90;;;;;;4941279;29;20094;-72
2020/12/15 09:55:15;;;;;;;19.02;10.43;;;7.00;99.90;;;;;;4956122;28;20039;-72
2020/12/15 09:57:40;;;;;;;17.17;9.75;;;7.00;99.90;;;;;;4942507;28;20039;-72
2020/12/15 10:00:06;;;;;;;21.20;11.25;;;7.00;99.90;;;;;;4956614;28;20359;-72
2020/12/15 10:02:33;;;;;;;21.00;10.48;;;6.90;99.90;;;;;;4942141;28;20621;-71
2020/12/15 10:04:58;;;;;;;17.83;9.85;;;6.90;99.90;;;;;;4941968;28;20035;-72
2020/12/15 10:07:24;;;;;;;18.05;9.68;;;6.90;99.90;;;;;;4956810;28;20536;-71
2020/12/15 10:09:54;;;;;;;16.65;9.90;;;7.00;99.90;;;;;;4941989;28;20863;-74
2020/12/15 10:12:20;;;;;;;18.92;10.68;;;7.00;99.90;;;;;;4941786;28;20829;-72
2020/12/15 10:14:46;;;;;;;20.55;10.90;;;7.00;99.90;;;;;;4941671;28;20023;-73
2020/12/15 10:17:12;;;;;;;19.85;10.48;;;7.10;99.90;;;;;;4940316;28;20035;-72
2020/12/15 10:19:38;;;;;;;16.95;9.95;;;7.00;99.90;;;;;;4941612;28;20047;-72
2020/12/15 10:22:04;;;;;;;16.48;9.65;;;6.90;99.90;;;;;;4941189;28;20069;-72
2020/12/15 10:24:30;;;;;;;18.73;10.45;;;6.90;99.90;;;;;;4940933;28;20146;-72
2020/12/15 10:26:55;;;;;;;19.30;10.38;;;6.90;99.90;;;;;;4940620;28;20560;-72
2020/12/15 10:29:23;;;;;;;20.15;11.07;;;6.90;99.90;;;;;;4941247;29;20046;-71
2020/12/15 10:31:49;;;;;;;20.17;10.43;;;6.90;99.90;;;;;;4941142;29;20039;-71
2020/12/15 10:34:15;;;;;;;16.13;10.15;;;7.00;99.90;;;;;;4940975;29;20087;-72
2020/12/15 10:36:41;;;;;;;20.30;10.60;;;6.90;99.90;;;;;;4940375;29;20028;-71
2020/12/15 10:39:06;;;;;;;22.50;11.00;;;6.90;99.90;;;;;;4940868;29;20063;-72
2020/12/15 10:41:36;;;;;;;21.02;10.50;;;7.10;99.90;;;;;;4940229;28;20514;-71
2020/12/15 10:44:03;;;;;;;18.05;10.10;;;7.00;99.90;;;;;;4940336;28;20145;-72
2020/12/15 10:46:28;;;;;;;18.85;11.05;;;7.00;99.90;;;;;;4940096;28;20571;-72
2020/12/15 10:48:54;;;;;;;17.40;10.45;;;7.00;99.90;;;;;;4955505;28;20046;-72
2020/12/15 10:51:20;;;;;;;21.45;11.00;;;7.10;99.90;;;;;;4940417;28;20031;-72
2020/12/15 10:53:46;;;;;;;17.20;10.20;;;7.00;99.90;;;;;;4955565;28;20031;-76
2020/12/15 10:56:13;;;;;;;18.15;10.15;;;7.00;99.90;;;;;;4939590;28;20027;-77
2020/12/15 10:58:39;;;;;;;17.52;11.20;;;7.10;99.90;;;;;;4955281;28;20058;-78
2020/12/15 11:01:07;;;;;;;18.40;9.75;;;7.10;99.90;;;;;;4939883;29;20050;-76
2020/12/15 11:03:34;;;;;;;17.63;10.10;;;7.10;99.90;;;;;;4940790;29;20051;-76
2020/12/15 11:06:00;;;;;;;16.52;10.02;;;7.10;99.90;;;;;;4940398;28;20038;-76
2020/12/15 11:08:29;;;;;;;18.02;10.10;;;7.10;99.90;;;;;;4955368;28;20027;-76
2020/12/15 11:10:55;;;;;;;17.48;10.40;;;7.00;99.90;;;;;;4940627;28;20039;-76
2020/12/15 11:13:21;;;;;;;17.05;9.48;;;7.00;99.90;;;;;;4939884;28;20679;-76
2020/12/15 11:15:47;;;;;;;17.58;9.48;;;7.10;99.90;;;;;;4953877;28;20406;-76
2020/12/15 11:18:13;;;;;;;20.75;10.52;;;7.20;99.90;;;;;;4938978;28;20043;-76
2020/12/15 11:20:38;;;;;;;16.77;9.75;;;7.40;99.90;;;;;;4940140;29;20035;-76
2020/12/15 11:23:05;;;;;;;17.65;9.63;;;7.50;99.90;;;;;;4940096;28;20071;-75
2020/12/15 11:25:31;;;;;;;18.02;9.90;;;7.60;99.90;;;;;;4942483;28;20050;-76
2020/12/15 11:27:57;;;;;;;18.25;8.88;;;7.70;99.90;;;;;;4944277;29;20924;-77
2020/12/15 11:30:23;;;;;;;17.98;9.88;;;7.80;99.90;;;;;;4944297;28;20071;-75
2020/12/15 11:32:49;;;;;;;19.23;9.80;;;7.90;99.90;;;;;;4944095;28;20119;-76
2020/12/15 11:35:15;;;;;;;17.15;9.57;;;7.80;99.90;;;;;;4943522;28;20035;-76
2020/12/15 11:37:43;;;;;;;17.75;10.43;;;7.80;99.90;;;;;;4958770;28;20042;-76
2020/12/15 11:40:11;;;;;;;18.35;10.32;;;7.70;99.90;;;;;;4944131;28;20035;-75
2020/12/15 11:42:40;;;;;;;14.95;8.88;;;7.70;99.90;;;;;;4944498;28;20045;-75
2020/12/15 11:45:08;;;;;;;16.65;9.68;;;7.70;99.90;;;;;;4943051;28;20524;-75
2020/12/15 11:47:34;;;;;;;20.88;9.60;;;7.80;99.90;;;;;;4943241;28;20110;-75
2020/12/15 11:50:01;;;;;;;27.42;11.77;;;7.80;99.90;;;;;;4958711;28;20043;-75
2020/12/15 11:52:28;;;;;;;57.67;13.55;;;7.90;99.90;;;;;;4943895;28;20116;-75
2020/12/15 11:54:53;;;;;;;36.53;11.77;;;7.90;99.90;;;;;;4957863;28;20035;-75
2020/12/15 11:57:19;;;;;;;18.98;9.30;;;7.80;99.90;;;;;;4958248;28;20380;-75
2020/12/15 11:59:45;;;;;;;19.17;9.52;;;7.80;99.90;;;;;;4943595;28;20113;-76
2020/12/15 12:02:14;;;;;;;17.30;9.35;;;7.70;99.90;;;;;;4957587;28;20038;-76
2020/12/15 12:04:40;;;;;;;17.00;9.45;;;7.70;99.90;;;;;;4943621;28;20129;-76
2020/12/15 12:07:07;;;;;;;17.25;9.05;;;7.80;99.90;;;;;;4957358;28;20069;-75
2020/12/15 12:09:33;;;;;;;15.45;9.07;;;7.80;99.90;;;;;;4942934;28;20070;-77
2020/12/15 12:11:59;;;;;;;15.77;9.05;;;7.80;99.90;;;;;;4958575;28;20082;-77
2020/12/15 12:14:25;;;;;;;15.27;8.80;;;7.90;99.90;;;;;;4943354;28;20031;-76
2020/12/15 12:16:51;;;;;;;16.13;9.00;;;7.80;99.90;;;;;;4940265;29;20086;-76
2020/12/15 12:19:16;;;;;;;15.77;9.40;;;7.70;99.90;;;;;;4942830;28;20034;-76
2020/12/15 12:21:42;;;;;;;19.33;9.40;;;7.80;99.90;;;;;;4943570;28;20947;-75
2020/12/15 12:24:08;;;;;;;14.48;8.90;;;7.80;99.90;;;;;;4957178;28;20058;-76
2020/12/15 12:26:34;;;;;;;16.40;8.45;;;7.90;99.90;;;;;;4956778;28;20031;-76
2020/12/15 12:28:59;;;;;;;16.35;8.70;;;7.80;99.90;;;;;;4942172;29;20769;-75
2020/12/15 12:31:25;;;;;;;15.75;9.00;;;7.90;99.90;;;;;;4943105;28;20035;-75
2020/12/15 12:33:51;;;;;;;14.35;8.70;;;7.90;99.90;;;;;;4943100;28;20035;-75
2020/12/15 12:36:17;;;;;;;16.52;8.60;;;7.90;99.90;;;;;;4941703;28;20042;-76
2020/12/15 12:38:43;;;;;;;16.75;8.80;;;8.00;99.90;;;;;;4942800;28;20035;-74
2020/12/15 12:41:12;;;;;;;15.32;8.43;;;8.00;99.90;;;;;;4957331;28;20134;-73
2020/12/15 12:43:38;;;;;;;19.08;8.70;;;8.10;99.90;;;;;;4937206;29;20141;-75
2020/12/15 12:46:03;;;;;;;15.68;7.93;;;8.20;99.90;;;;;;4941444;29;20027;-75
2020/12/15 12:48:29;;;;;;;14.68;8.25;;;8.20;99.90;;;;;;4942681;28;20105;-72
2020/12/15 12:50:55;;;;;;;19.52;9.15;;;8.10;99.90;;;;;;4943080;28;20062;-75